createdAt,value
2022-08-17T00:00:34.682Z,10.35
2022-08-17T00:03:20.549Z,11.07
2022-08-17T00:05:49.334Z,11.10
2022-08-17T00:08:20.940Z,8.82
2022-08-17T00:10:49.351Z,12.07
2022-08-17T00:13:30.315Z,10.52
2022-08-17T00:16:02.148Z,13.82
2022-08-17T00:19:06.830Z,10.25
2022-08-17T00:21:23.922Z,9.82
2022-08-17T00:23:53.963Z,10.10
2022-08-17T00:26:44.617Z,11.10
2022-08-17T00:29:10.258Z,13.00
2022-08-17T00:31:47.070Z,14.02
2022-08-17T00:34:14.259Z,11.20
2022-08-17T00:36:41.406Z,9.73
2022-08-17T00:39:11.354Z,13.25
2022-08-17T00:41:42.151Z,11.65
2022-08-17T00:44:10.045Z,11.10
2022-08-17T00:46:41.006Z,10.75
2022-08-17T00:49:10.069Z,13.57
2022-08-17T00:51:54.629Z,14.48
2022-08-17T00:54:33.404Z,16.20
2022-08-17T00:57:17.820Z,15.32
2022-08-17T01:00:02.477Z,12.15
2022-08-17T01:02:41.736Z,12.45
2022-08-17T01:05:18.854Z,14.07
2022-08-17T01:07:47.872Z,13.55
2022-08-17T01:10:59.823Z,14.30
2022-08-17T01:13:10.647Z,12.52
2022-08-17T01:15:46.423Z,13.18
2022-08-17T01:18:14.857Z,11.35
2022-08-17T01:20:49.398Z,12.50
2022-08-17T01:23:20.698Z,11.80
2022-08-17T01:26:01.987Z,13.45
2022-08-17T01:28:52.636Z,14.15
2022-08-17T01:31:19.971Z,12.52
2022-08-17T01:33:47.577Z,12.15
2022-08-17T01:36:14.724Z,11.48
2022-08-17T01:38:41.975Z,17.10
2022-08-17T01:41:13.797Z,11.98
2022-08-17T01:43:56.204Z,12.13
2022-08-17T01:48:52.141Z,12.18
2022-08-17T01:51:20.319Z,11.77
2022-08-17T01:53:51.725Z,12.60
2022-08-17T01:56:22.388Z,11.43
2022-08-17T01:58:50.264Z,11.50
2022-08-17T02:01:21.874Z,12.45
2022-08-17T02:03:59.172Z,12.07
2022-08-17T02:06:52.734Z,12.70
2022-08-17T02:09:29.488Z,11.07
2022-08-17T02:11:59.729Z,11.40
2022-08-17T02:14:26.993Z,11.60
2022-08-17T02:16:56.132Z,11.30
2022-08-17T02:19:23.406Z,11.23
2022-08-17T02:21:53.034Z,11.80
2022-08-17T02:24:59.409Z,11.20
2022-08-17T02:27:15.864Z,19.10
2022-08-17T02:29:43.070Z,9.73
2022-08-17T02:32:25.368Z,10.13
2022-08-17T02:34:56.962Z,11.57
2022-08-17T02:37:25.102Z,12.35
2022-08-17T02:39:52.480Z,12.73
2022-08-17T02:42:26.359Z,12.10
2022-08-17T02:44:53.582Z,12.80
2022-08-17T02:47:20.746Z,12.55
2022-08-17T02:49:54.195Z,12.05
2022-08-17T02:52:43.864Z,11.43
2022-08-17T02:55:23.290Z,14.77
2022-08-17T02:57:50.937Z,14.10
2022-08-17T03:00:25.343Z,12.73
2022-08-17T03:02:57.261Z,11.50
2022-08-17T03:05:26.969Z,10.85
2022-08-17T03:07:54.420Z,12.30
2022-08-17T03:10:25.582Z,10.98
2022-08-17T03:12:53.853Z,10.55
2022-08-17T03:15:26.485Z,13.88
2022-08-17T03:17:55.145Z,12.27
2022-08-17T03:20:22.764Z,11.23
2022-08-17T03:22:53.806Z,11.32
2022-08-17T03:25:31.336Z,11.43
2022-08-17T03:28:01.972Z,10.68
2022-08-17T03:30:29.793Z,11.40
2022-08-17T03:33:00.005Z,10.35
2022-08-17T03:35:29.723Z,10.75
2022-08-17T03:38:00.687Z,11.30
2022-08-17T03:40:37.000Z,9.20
2022-08-17T03:43:21.423Z,9.77
2022-08-17T03:46:10.805Z,11.30
2022-08-17T03:49:13.420Z,12.60
2022-08-17T03:51:59.219Z,13.43
2022-08-17T03:54:45.166Z,10.27
2022-08-17T03:57:12.935Z,13.45
2022-08-17T03:59:41.158Z,11.90
2022-08-17T04:02:12.545Z,13.63
2022-08-17T04:04:40.126Z,12.83
2022-08-17T04:07:08.455Z,13.10
2022-08-17T04:09:36.592Z,10.85
2022-08-17T04:12:05.319Z,10.90
2022-08-17T04:14:39.253Z,9.40
2022-08-17T04:17:20.618Z,10.25
2022-08-17T04:19:47.835Z,9.27
2022-08-17T04:22:31.204Z,10.30
2022-08-17T04:25:17.018Z,10.23
2022-08-17T04:27:44.442Z,10.07
2022-08-17T04:30:13.053Z,10.82
2022-08-17T04:33:07.086Z,11.25
2022-08-17T04:35:47.383Z,10.13
2022-08-17T04:38:21.554Z,10.35
2022-08-17T04:41:07.826Z,11.45
2022-08-17T04:43:36.190Z,15.10
2022-08-17T04:46:07.965Z,10.85
2022-08-17T04:48:37.798Z,10.48
2022-08-17T04:51:12.232Z,8.88
2022-08-17T04:53:44.795Z,9.13
2022-08-17T04:56:16.842Z,9.98
2022-08-17T04:58:46.310Z,9.60
2022-08-17T05:01:22.920Z,11.10
2022-08-17T05:03:55.378Z,12.32
2022-08-17T05:06:22.908Z,11.63
2022-08-17T05:08:50.058Z,9.95
2022-08-17T05:11:17.285Z,12.63
2022-08-17T05:13:50.271Z,11.23
2022-08-17T05:16:19.178Z,10.98
2022-08-17T05:18:46.534Z,10.50
2022-08-17T05:21:14.031Z,10.90
2022-08-17T05:23:54.874Z,12.15
2022-08-17T05:26:26.810Z,13.80
2022-08-17T05:29:00.573Z,11.23
2022-08-17T05:31:34.020Z,11.80
2022-08-17T05:34:01.737Z,11.05
2022-08-17T05:36:41.785Z,10.15
2022-08-17T05:41:48.370Z,12.00
2022-08-17T05:44:16.577Z,16.95
2022-08-17T05:46:52.125Z,15.82
2022-08-17T05:49:27.165Z,13.30
2022-08-17T05:51:55.489Z,13.75
2022-08-17T05:54:39.616Z,14.77
2022-08-17T05:57:32.872Z,14.20
2022-08-17T06:00:14.324Z,16.77
2022-08-17T06:02:47.732Z,16.05
2022-08-17T06:05:15.635Z,15.82
2022-08-17T06:07:42.796Z,16.33
2022-08-17T06:10:42.690Z,19.33
2022-08-17T06:13:50.699Z,15.63
2022-08-17T06:16:31.145Z,15.98
2022-08-17T06:19:20.537Z,15.25
2022-08-17T06:21:54.885Z,14.75
2022-08-17T06:24:28.421Z,17.05
2022-08-17T06:27:07.706Z,15.60
2022-08-17T06:29:55.781Z,16.02
2022-08-17T06:32:23.272Z,15.30
2022-08-17T06:34:51.484Z,21.48
2022-08-17T06:37:37.260Z,21.75
2022-08-17T06:40:13.138Z,24.98
2022-08-17T06:42:55.125Z,25.20
2022-08-17T06:45:50.220Z,36.85
2022-08-17T06:48:24.953Z,40.80
2022-08-17T06:51:29.290Z,43.67
2022-08-17T06:54:14.365Z,39.55
2022-08-17T06:56:52.921Z,43.17
2022-08-17T06:59:56.337Z,36.55
2022-08-17T07:02:52.933Z,49.10
2022-08-17T07:05:25.557Z,48.00
2022-08-17T07:08:17.081Z,62.03
2022-08-17T07:10:50.272Z,50.40
2022-08-17T07:13:51.775Z,41.92
2022-08-17T07:16:53.212Z,40.30
2022-08-17T07:19:23.431Z,55.60
2022-08-17T07:22:07.502Z,51.45
2022-08-17T07:24:59.718Z,51.63
2022-08-17T07:27:41.959Z,52.28
2022-08-17T07:30:21.759Z,37.17
2022-08-17T07:32:50.930Z,40.45
2022-08-17T07:35:31.252Z,37.08
2022-08-17T07:38:24.777Z,34.80
2022-08-17T07:41:03.206Z,33.35
2022-08-17T07:43:31.298Z,37.17
2022-08-17T07:46:40.724Z,37.92
2022-08-17T07:49:11.166Z,36.10
2022-08-17T07:51:43.951Z,35.42
2022-08-17T07:54:22.665Z,36.90
2022-08-17T07:57:00.460Z,36.55
2022-08-17T07:59:34.198Z,36.08
2022-08-17T08:02:28.953Z,33.30
2022-08-17T08:05:01.932Z,42.10
2022-08-17T08:07:39.502Z,36.00
2022-08-17T08:10:12.879Z,49.17
2022-08-17T08:12:43.084Z,39.03
2022-08-17T08:15:19.204Z,43.05
2022-08-17T08:17:55.904Z,50.83
2022-08-17T08:20:53.081Z,47.70
2022-08-17T08:23:47.253Z,64.15
2022-08-17T08:26:32.890Z,65.35
2022-08-17T08:29:06.043Z,47.00
2022-08-17T08:31:42.189Z,52.60
2022-08-17T08:34:58.735Z,53.97
2022-08-17T08:37:36.668Z,50.03
2022-08-17T08:40:40.019Z,46.00
2022-08-17T08:43:31.328Z,44.97
2022-08-17T08:46:23.344Z,43.97
2022-08-17T08:49:17.090Z,55.45
2022-08-17T08:51:56.566Z,41.30
2022-08-17T08:54:40.172Z,43.60
2022-08-17T08:57:26.443Z,47.45
2022-08-17T09:00:08.992Z,41.15
2022-08-17T09:02:59.990Z,36.22
2022-08-17T09:05:39.343Z,39.50
2022-08-17T09:08:23.417Z,36.22
2022-08-17T09:11:11.777Z,33.08
2022-08-17T09:14:21.878Z,35.83
2022-08-17T09:17:23.174Z,34.10
2022-08-17T09:20:02.255Z,33.60
2022-08-17T09:22:42.740Z,37.05
2022-08-17T09:25:12.784Z,46.22
2022-08-17T09:27:44.345Z,43.45
2022-08-17T09:30:12.024Z,44.50
2022-08-17T09:32:56.578Z,31.73
2022-08-17T09:35:36.516Z,34.08
2022-08-17T09:38:16.246Z,30.20
2022-08-17T09:41:04.780Z,30.58
2022-08-17T09:43:56.279Z,31.40
2022-08-17T09:46:52.503Z,33.22
2022-08-17T09:49:35.147Z,32.50
2022-08-17T09:52:08.717Z,33.20
2022-08-17T09:54:40.338Z,27.75
2022-08-17T09:57:30.237Z,31.15
2022-08-17T10:00:16.729Z,26.30
2022-08-17T10:03:03.136Z,23.35
2022-08-17T10:05:39.340Z,30.92
2022-08-17T10:08:32.529Z,22.75
2022-08-17T10:11:33.310Z,23.95
2022-08-17T10:14:37.803Z,23.92
2022-08-17T10:17:21.053Z,23.55
2022-08-17T10:20:21.277Z,35.20
2022-08-17T10:23:20.976Z,31.17
2022-08-17T10:26:13.612Z,22.77
2022-08-17T10:28:49.790Z,31.88
2022-08-17T10:31:34.703Z,20.63
2022-08-17T10:34:21.028Z,27.25
2022-08-17T10:36:52.510Z,25.45
2022-08-17T10:39:52.322Z,29.58
2022-08-17T10:42:34.939Z,21.95
2022-08-17T10:45:36.279Z,17.00
2022-08-17T10:48:07.247Z,22.60
2022-08-17T10:50:53.391Z,22.48
2022-08-17T10:53:32.657Z,27.02
2022-08-17T10:56:15.051Z,23.38
2022-08-17T11:01:32.237Z,19.42
2022-08-17T11:04:30.375Z,22.15
2022-08-17T11:07:28.016Z,18.23
2022-08-17T11:10:32.545Z,21.25
2022-08-17T11:13:21.814Z,25.50
2022-08-17T11:16:08.946Z,21.15
2022-08-17T11:19:10.057Z,30.38
2022-08-17T11:22:10.469Z,19.25
2022-08-17T11:24:39.984Z,16.17
2022-08-17T11:27:22.717Z,22.38
2022-08-17T11:30:02.786Z,19.58
2022-08-17T11:32:53.070Z,19.08
2022-08-17T11:35:21.831Z,21.67
2022-08-17T11:38:16.107Z,15.20
2022-08-17T11:40:58.910Z,18.42
2022-08-17T11:46:25.501Z,20.25
2022-08-17T11:49:10.945Z,17.73
2022-08-17T11:51:53.359Z,19.65
2022-08-17T11:54:33.462Z,18.58
2022-08-17T11:57:26.906Z,21.80
2022-08-17T12:00:00.300Z,15.48
2022-08-17T12:02:36.306Z,15.95
2022-08-17T12:05:29.861Z,14.07
2022-08-17T12:08:21.567Z,13.88
2022-08-17T12:11:11.781Z,12.60
2022-08-17T12:13:49.561Z,13.52
2022-08-17T12:16:21.536Z,11.52
2022-08-17T12:18:52.563Z,13.93
2022-08-17T12:21:22.692Z,18.88
2022-08-17T12:23:58.982Z,11.43
2022-08-17T12:26:31.057Z,17.77
2022-08-17T12:29:05.328Z,14.07
2022-08-17T12:31:45.137Z,11.85
2022-08-17T12:34:17.844Z,10.82
2022-08-17T12:36:46.570Z,11.98
2022-08-17T12:39:21.343Z,13.70
2022-08-17T12:41:51.826Z,11.15
2022-08-17T12:44:26.791Z,14.57
2022-08-17T12:47:21.811Z,13.65
2022-08-17T12:49:51.741Z,14.27
2022-08-17T12:52:26.757Z,14.75
2022-08-17T12:54:59.470Z,13.48
2022-08-17T12:57:38.499Z,13.63
2022-08-17T13:00:29.523Z,13.85
2022-08-17T13:03:17.120Z,14.50
2022-08-17T13:06:09.640Z,15.27
2022-08-17T13:11:16.190Z,13.82
2022-08-17T13:13:52.482Z,14.45
2022-08-17T13:16:26.910Z,12.95
2022-08-17T13:18:55.603Z,19.63
2022-08-17T13:21:30.730Z,12.73
2022-08-17T13:24:05.751Z,13.15
2022-08-17T13:26:38.730Z,12.25
2022-08-17T13:29:16.409Z,10.50
2022-08-17T13:31:52.722Z,10.65
2022-08-17T13:34:24.124Z,9.45
2022-08-17T13:37:34.866Z,9.88
2022-08-17T13:40:11.207Z,11.07
2022-08-17T13:42:55.579Z,9.98
2022-08-17T13:45:36.847Z,12.95
2022-08-17T13:48:11.838Z,11.90
2022-08-17T13:50:56.558Z,13.75
2022-08-17T13:53:40.231Z,12.63
2022-08-17T13:56:34.962Z,11.55
2022-08-17T13:59:13.785Z,11.48
2022-08-17T14:01:46.572Z,12.80
2022-08-17T14:04:22.661Z,11.90
2022-08-17T14:06:54.601Z,10.88
2022-08-17T14:09:37.065Z,11.68
2022-08-17T14:12:09.733Z,10.75
2022-08-17T14:17:07.858Z,10.63
2022-08-17T14:19:36.023Z,12.70
2022-08-17T14:22:05.085Z,10.07
2022-08-17T14:24:39.998Z,9.50
2022-08-17T14:27:10.025Z,10.52
2022-08-17T14:29:37.364Z,7.65
2022-08-17T14:32:20.262Z,8.40
2022-08-17T14:34:49.715Z,6.15
2022-08-17T14:37:18.702Z,8.07
2022-08-17T14:39:46.027Z,7.15
2022-08-17T14:42:15.099Z,5.43
2022-08-17T14:44:42.287Z,6.28
2022-08-17T14:47:15.904Z,5.45
2022-08-17T14:49:43.851Z,6.03
2022-08-17T14:52:18.406Z,7.85
2022-08-17T14:54:46.048Z,9.30
2022-08-17T14:57:26.072Z,9.90
2022-08-17T15:00:01.301Z,10.02
2022-08-17T15:02:30.931Z,11.77
2022-08-17T15:05:00.420Z,9.35
2022-08-17T15:07:30.610Z,7.70
2022-08-17T15:10:02.111Z,7.72
2022-08-17T15:12:33.583Z,11.15
2022-08-17T15:15:05.585Z,8.05
2022-08-17T15:17:43.795Z,6.30
2022-08-17T15:20:16.373Z,12.00
2022-08-17T15:22:45.574Z,6.85
2022-08-17T15:25:14.926Z,8.32
2022-08-17T15:27:42.886Z,7.05
2022-08-17T15:30:11.149Z,6.93
2022-08-17T15:32:41.213Z,7.65
2022-08-17T15:35:19.815Z,10.38
2022-08-17T15:38:11.813Z,12.40
2022-08-17T15:40:45.696Z,11.45
2022-08-17T15:43:16.231Z,15.18
2022-08-17T15:45:44.581Z,13.15
2022-08-17T15:48:40.813Z,11.73
2022-08-17T15:51:21.446Z,11.10
2022-08-17T15:53:53.642Z,14.32
2022-08-17T15:58:48.862Z,11.40
2022-08-17T16:03:01.696Z,9.23
2022-08-17T16:04:26.947Z,7.03
2022-08-17T16:06:54.106Z,7.50
2022-08-17T16:09:22.624Z,7.60
2022-08-17T16:11:52.155Z,8.30
2022-08-17T16:14:22.747Z,7.05
2022-08-17T16:16:51.791Z,5.20
2022-08-17T16:19:18.945Z,5.15
2022-08-17T16:21:46.118Z,5.40
2022-08-17T16:24:15.000Z,4.25
2022-08-17T16:26:42.775Z,4.35
2022-08-17T16:29:13.508Z,4.40
2022-08-17T16:31:41.956Z,4.38
2022-08-17T16:34:17.136Z,4.50
2022-08-17T16:36:56.106Z,4.38
2022-08-17T16:39:29.217Z,6.28
2022-08-17T16:41:57.093Z,4.40
2022-08-17T16:44:25.942Z,5.70
2022-08-17T16:46:53.502Z,5.20
2022-08-17T16:49:36.119Z,5.47
2022-08-17T16:52:12.635Z,6.50
2022-08-17T16:54:44.008Z,3.95
2022-08-17T16:57:17.479Z,4.43
2022-08-17T16:59:48.148Z,10.38
2022-08-17T17:02:23.590Z,4.80
2022-08-17T17:04:57.870Z,5.85
2022-08-17T17:07:49.942Z,7.05
2022-08-17T17:10:22.388Z,6.68
2022-08-17T17:15:50.622Z,7.13
2022-08-17T17:18:21.075Z,5.70
2022-08-17T17:20:55.300Z,5.85
2022-08-17T17:23:47.277Z,8.75
2022-08-17T17:26:36.556Z,6.22
2022-08-17T17:29:27.309Z,7.18
2022-08-17T17:32:24.998Z,7.05
2022-08-17T17:35:00.872Z,8.57
2022-08-17T17:37:33.944Z,7.68
2022-08-17T17:40:12.310Z,11.43
2022-08-17T17:42:42.763Z,10.18
2022-08-17T17:45:31.252Z,9.43
2022-08-17T17:47:58.705Z,8.23
2022-08-17T17:51:04.428Z,10.32
2022-08-17T17:53:41.796Z,10.45
2022-08-17T17:56:43.935Z,9.45
2022-08-17T17:59:25.127Z,12.90
2022-08-17T18:02:51.482Z,10.27
2022-08-17T18:05:38.923Z,14.82
2022-08-17T18:08:32.368Z,11.80
2022-08-17T18:11:39.932Z,10.40
2022-08-17T18:14:19.057Z,14.05
2022-08-17T18:16:46.630Z,11.73
2022-08-17T18:19:20.858Z,10.00
2022-08-17T18:21:56.120Z,11.13
2022-08-17T18:24:36.799Z,11.30
2022-08-17T18:27:49.249Z,11.60
2022-08-17T18:30:22.851Z,10.40
2022-08-17T18:32:50.089Z,11.27
2022-08-17T18:38:36.427Z,10.75
2022-08-17T18:41:30.335Z,10.68
2022-08-17T18:44:04.097Z,11.63
2022-08-17T18:46:35.460Z,12.88
2022-08-17T18:49:22.899Z,11.40
2022-08-17T18:52:06.925Z,10.75
2022-08-17T18:54:36.242Z,10.93
2022-08-17T18:57:04.608Z,11.02
2022-08-17T18:59:49.392Z,11.35
2022-08-17T19:02:45.105Z,11.00
2022-08-17T19:05:26.067Z,11.82
2022-08-17T19:07:53.625Z,10.98
2022-08-17T19:10:31.612Z,13.68
2022-08-17T19:13:14.087Z,10.68
2022-08-17T19:18:53.446Z,10.50
2022-08-17T19:21:27.748Z,10.88
2022-08-17T19:24:07.504Z,10.45
2022-08-17T19:26:55.210Z,9.60
2022-08-17T19:29:29.721Z,9.07
2022-08-17T19:31:58.789Z,9.80
2022-08-17T19:34:34.138Z,11.73
2022-08-17T19:37:21.104Z,8.93
2022-08-17T19:40:07.590Z,8.70
2022-08-17T19:43:13.381Z,9.27
2022-08-17T19:46:06.228Z,9.73
2022-08-17T19:48:52.232Z,8.50
2022-08-17T19:51:44.728Z,7.45
2022-08-17T19:54:35.115Z,10.13
2022-08-17T19:57:05.490Z,7.85
2022-08-17T19:59:50.670Z,6.88
2022-08-17T20:02:33.798Z,6.45
2022-08-17T20:05:10.949Z,7.72
2022-08-17T20:07:53.089Z,8.88
2022-08-17T20:10:54.897Z,8.77
2022-08-17T20:13:35.563Z,9.38
2022-08-17T20:16:04.553Z,9.30
2022-08-17T20:18:31.752Z,9.73
2022-08-17T20:21:05.338Z,9.43
2022-08-17T20:23:41.608Z,8.15
2022-08-17T20:26:33.978Z,12.93
2022-08-17T20:29:14.454Z,8.38
2022-08-17T20:31:49.174Z,9.68
2022-08-17T20:34:33.529Z,10.60
2022-08-17T20:37:09.194Z,12.93
2022-08-17T20:40:07.300Z,10.75
2022-08-17T20:42:35.118Z,11.20
2022-08-17T20:45:22.247Z,10.05
2022-08-17T20:48:33.330Z,11.57
2022-08-17T20:50:59.128Z,9.95
2022-08-17T20:53:53.689Z,10.35
2022-08-17T20:56:46.523Z,11.88
2022-08-17T20:59:25.896Z,12.50
2022-08-17T21:02:18.425Z,9.98
2022-08-17T21:04:54.658Z,9.38
2022-08-17T21:07:42.830Z,10.63
2022-08-17T21:10:26.307Z,11.52
2022-08-17T21:16:01.963Z,12.43
2022-08-17T21:18:35.991Z,13.00
2022-08-17T21:21:24.869Z,10.70
2022-08-17T21:24:11.862Z,10.45
2022-08-17T21:27:17.959Z,10.80
2022-08-17T21:30:06.541Z,8.77
2022-08-17T21:32:39.718Z,8.48
2022-08-17T21:35:41.466Z,11.02
2022-08-17T21:38:14.762Z,8.63
2022-08-17T21:40:47.778Z,9.23
2022-08-17T21:43:32.654Z,9.18
2022-08-17T21:46:10.735Z,12.50
2022-08-17T21:48:44.487Z,7.88
2022-08-17T21:51:23.414Z,9.15
2022-08-17T21:53:57.307Z,10.18
2022-08-17T21:56:32.971Z,10.13
2022-08-17T21:59:05.445Z,10.40
2022-08-17T22:01:36.976Z,10.93
2022-08-17T22:04:20.877Z,9.98
2022-08-17T22:06:57.386Z,13.10
2022-08-17T22:09:47.310Z,10.30
2022-08-17T22:12:20.399Z,11.27
2022-08-17T22:15:01.631Z,9.02
2022-08-17T22:17:37.949Z,10.52
2022-08-17T22:20:13.150Z,13.32
2022-08-17T22:23:18.974Z,9.45
2022-08-17T22:26:03.064Z,11.68
2022-08-17T22:28:45.697Z,10.57
2022-08-17T22:31:18.732Z,13.50
2022-08-17T22:34:02.444Z,12.85
2022-08-17T22:36:41.873Z,10.75
2022-08-17T22:39:09.176Z,13.25
2022-08-17T22:41:55.361Z,14.80
2022-08-17T22:44:32.143Z,16.00
2022-08-17T22:47:02.544Z,13.35
2022-08-17T22:49:57.880Z,14.23
2022-08-17T22:52:57.180Z,13.15
2022-08-17T22:55:44.435Z,12.80
2022-08-17T22:58:41.815Z,12.60
2022-08-17T23:01:29.405Z,11.95
2022-08-17T23:03:59.675Z,19.85
2022-08-17T23:06:28.084Z,10.25
2022-08-17T23:08:57.813Z,9.98
2022-08-17T23:11:42.907Z,14.38
2022-08-17T23:14:20.156Z,9.13
2022-08-17T23:16:50.255Z,9.88
2022-08-17T23:19:20.410Z,14.40
2022-08-17T23:21:52.578Z,12.73
2022-08-17T23:24:26.535Z,14.00
2022-08-17T23:26:57.106Z,8.05
2022-08-17T23:29:25.918Z,9.85
2022-08-17T23:31:53.170Z,11.85
2022-08-17T23:34:20.498Z,10.32
2022-08-17T23:36:55.819Z,9.68
2022-08-17T23:39:27.344Z,14.93
2022-08-17T23:41:59.073Z,13.15
2022-08-17T23:44:28.838Z,13.00
2022-08-17T23:46:56.185Z,12.85
2022-08-17T23:49:30.284Z,16.35
2022-08-17T23:52:04.227Z,12.82
2022-08-17T23:54:43.719Z,11.00
2022-08-17T23:57:14.608Z,10.38
2022-08-17T23:59:43.915Z,10.27
